Atkins, Iowa
Current Conditions -  °F | °C
As of 12:52 AM on Thursday 23 Oct 2014 (Local Time) from KCID Reporting Station
Clear Clear  
Wind Chill: 44°   Ceiling: Unl
Heat Index: 49°   Visibility: 10mi
Dew Point: 40°   Wind: 13mph
Humidity: 71%   Direction: 160°SSE
Pressure: 30.14"   Gusts: NA
Location:  42°N, 91.86°W
Report Text: KCID 230552Z AUTO 16011KT 10SM CLR 09/04 A3014 RMK AO2 SLP209 T00940044 10117 20094 401560011 58013
Loading
Personal Weather Stations






























Interactive Weather Map
Tropical Storm Tracking
New forecast layout! Learn more

10-Day Weather Forecast

Advertisements
Track Severe Weather on mobile